sensor_id;sensor_type;location;lat;lon;timestamp;pressure;altitude;pressure_sealevel;temperature;humidity
59588;BME280;45412;54.472;18.464;2023-03-13T00:01:15;98982.77;;;-1.40;69.29
59588;BME280;45412;54.472;18.464;2023-03-13T00:04:03;98982.86;;;-1.42;69.34
59588;BME280;45412;54.472;18.464;2023-03-13T00:06:49;98984.70;;;-1.45;69.52
59588;BME280;45412;54.472;18.464;2023-03-13T00:09:35;98985.20;;;-1.48;69.55
59588;BME280;45412;54.472;18.464;2023-03-13T00:12:22;98981.73;;;-1.52;70.03
59588;BME280;45412;54.472;18.464;2023-03-13T00:15:09;98975.63;;;-1.55;70.18
59588;BME280;45412;54.472;18.464;2023-03-13T00:17:56;98971.88;;;-1.57;70.48
59588;BME280;45412;54.472;18.464;2023-03-13T00:20:42;98973.12;;;-1.58;70.64
59588;BME280;45412;54.472;18.464;2023-03-13T00:23:29;98969.63;;;-1.57;70.60
59588;BME280;45412;54.472;18.464;2023-03-13T00:26:19;98967.08;;;-1.55;71.19
59588;BME280;45412;54.472;18.464;2023-03-13T00:29:06;98966.25;;;-1.52;71.11
59588;BME280;45412;54.472;18.464;2023-03-13T00:31:53;98978.95;;;-1.48;71.12
59588;BME280;45412;54.472;18.464;2023-03-13T00:34:40;98979.61;;;-1.43;71.36
59588;BME280;45412;54.472;18.464;2023-03-13T00:37:27;98981.91;;;-1.40;71.41
59588;BME280;45412;54.472;18.464;2023-03-13T00:40:13;98977.80;;;-1.38;71.61
59588;BME280;45412;54.472;18.464;2023-03-13T00:43:00;98968.15;;;-1.36;71.55
59588;BME280;45412;54.472;18.464;2023-03-13T00:45:46;98959.65;;;-1.33;71.54
59588;BME280;45412;54.472;18.464;2023-03-13T00:48:33;98955.83;;;-1.29;71.82
59588;BME280;45412;54.472;18.464;2023-03-13T00:51:21;98945.54;;;-1.25;72.17
59588;BME280;45412;54.472;18.464;2023-03-13T00:54:11;98942.31;;;-1.19;72.07
59588;BME280;45412;54.472;18.464;2023-03-13T00:56:58;98933.91;;;-1.15;72.04
59588;BME280;45412;54.472;18.464;2023-03-13T00:59:45;98925.70;;;-1.11;72.07
59588;BME280;45412;54.472;18.464;2023-03-13T01:02:33;98916.63;;;-1.07;72.08
59588;BME280;45412;54.472;18.464;2023-03-13T01:05:19;98903.66;;;-1.05;72.31
59588;BME280;45412;54.472;18.464;2023-03-13T01:08:06;98896.77;;;-1.03;72.39
59588;BME280;45412;54.472;18.464;2023-03-13T01:11:04;98890.05;;;-1.01;72.42
59588;BME280;45412;54.472;18.464;2023-03-13T01:14:00;98891.17;;;-0.99;72.40
59588;BME280;45412;54.472;18.464;2023-03-13T01:16:47;98890.85;;;-0.96;72.69
59588;BME280;45412;54.472;18.464;2023-03-13T01:19:34;98879.76;;;-0.93;72.69
59588;BME280;45412;54.472;18.464;2023-03-13T01:22:20;98870.68;;;-0.89;73.04
59588;BME280;45412;54.472;18.464;2023-03-13T01:25:07;98877.21;;;-0.84;73.10
59588;BME280;45412;54.472;18.464;2023-03-13T01:27:54;98880.98;;;-0.79;73.07
59588;BME280;45412;54.472;18.464;2023-03-13T01:30:41;98875.33;;;-0.74;72.79
59588;BME280;45412;54.472;18.464;2023-03-13T01:33:28;98861.68;;;-0.69;72.95
59588;BME280;45412;54.472;18.464;2023-03-13T01:36:15;98850.98;;;-0.64;72.74
59588;BME280;45412;54.472;18.464;2023-03-13T01:39:04;98836.36;;;-0.61;72.99
59588;BME280;45412;54.472;18.464;2023-03-13T01:41:51;98832.66;;;-0.61;73.25
59588;BME280;45412;54.472;18.464;2023-03-13T01:44:56;98843.73;;;-0.52;73.16
59588;BME280;45412;54.472;18.464;2023-03-13T01:47:44;98841.48;;;-0.46;72.90
59588;BME280;45412;54.472;18.464;2023-03-13T01:50:39;98842.09;;;-0.41;73.03
59588;BME280;45412;54.472;18.464;2023-03-13T01:53:41;98840.70;;;-0.38;72.86
59588;BME280;45412;54.472;18.464;2023-03-13T01:56:47;98837.11;;;-0.36;72.85
59588;BME280;45412;54.472;18.464;2023-03-13T01:59:55;98831.41;;;-0.33;72.79
59588;BME280;45412;54.472;18.464;2023-03-13T02:02:46;98829.46;;;-0.32;72.99
59588;BME280;45412;54.472;18.464;2023-03-13T02:05:34;98820.39;;;-0.32;73.17
59588;BME280;45412;54.472;18.464;2023-03-13T02:08:29;98813.21;;;-0.31;73.41
59588;BME280;45412;54.472;18.464;2023-03-13T02:14:29;98826.02;;;-0.30;73.96
59588;BME280;45412;54.472;18.464;2023-03-13T02:17:19;98835.09;;;-0.30;74.35
59588;BME280;45412;54.472;18.464;2023-03-13T02:20:07;98837.02;;;-0.27;74.23
59588;BME280;45412;54.472;18.464;2023-03-13T02:23:21;98831.64;;;-0.27;74.45
59588;BME280;45412;54.472;18.464;2023-03-13T02:26:10;98835.59;;;-0.26;74.54
59588;BME280;45412;54.472;18.464;2023-03-13T02:28:56;98829.63;;;-0.25;74.57
59588;BME280;45412;54.472;18.464;2023-03-13T02:31:48;98827.40;;;-0.22;74.67
59588;BME280;45412;54.472;18.464;2023-03-13T02:34:39;98826.80;;;-0.22;74.91
59588;BME280;45412;54.472;18.464;2023-03-13T02:37:29;98829.77;;;-0.22;75.12
59588;BME280;45412;54.472;18.464;2023-03-13T02:40:26;98825.48;;;-0.23;75.35
59588;BME280;45412;54.472;18.464;2023-03-13T02:43:36;98823.35;;;-0.26;75.57
59588;BME280;45412;54.472;18.464;2023-03-13T02:46:24;98817.01;;;-0.27;75.94
59588;BME280;45412;54.472;18.464;2023-03-13T02:49:29;98811.95;;;-0.28;76.04
59588;BME280;45412;54.472;18.464;2023-03-13T02:52:27;98802.88;;;-0.27;76.43
59588;BME280;45412;54.472;18.464;2023-03-13T02:55:27;98796.28;;;-0.28;76.63
59588;BME280;45412;54.472;18.464;2023-03-13T02:58:15;98796.41;;;-0.27;76.90
59588;BME280;45412;54.472;18.464;2023-03-13T03:01:02;98789.27;;;-0.26;76.89
59588;BME280;45412;54.472;18.464;2023-03-13T03:03:53;98788.16;;;-0.26;76.90
59588;BME280;45412;54.472;18.464;2023-03-13T03:06:40;98780.14;;;-0.26;77.01
59588;BME280;45412;54.472;18.464;2023-03-13T03:09:26;98773.77;;;-0.24;77.03
59588;BME280;45412;54.472;18.464;2023-03-13T03:12:16;98764.31;;;-0.24;77.17
59588;BME280;45412;54.472;18.464;2023-03-13T03:15:03;98759.44;;;-0.24;77.18
59588;BME280;45412;54.472;18.464;2023-03-13T03:17:50;98756.27;;;-0.26;77.64
59588;BME280;45412;54.472;18.464;2023-03-13T03:20:36;98747.16;;;-0.29;77.89
59588;BME280;45412;54.472;18.464;2023-03-13T03:23:23;98748.44;;;-0.29;77.88
59588;BME280;45412;54.472;18.464;2023-03-13T03:26:09;98734.73;;;-0.34;78.31
59588;BME280;45412;54.472;18.464;2023-03-13T03:28:56;98733.78;;;-0.29;78.16
59588;BME280;45412;54.472;18.464;2023-03-13T03:31:43;98721.52;;;-0.31;78.02
59588;BME280;45412;54.472;18.464;2023-03-13T03:34:32;98724.17;;;-0.29;78.41
59588;BME280;45412;54.472;18.464;2023-03-13T03:37:18;98718.56;;;-0.31;78.44
59588;BME280;45412;54.472;18.464;2023-03-13T03:40:05;98713.65;;;-0.34;78.89
59588;BME280;45412;54.472;18.464;2023-03-13T03:42:52;98717.05;;;-0.36;79.37
59588;BME280;45412;54.472;18.464;2023-03-13T03:45:39;98730.25;;;-0.35;79.31
59588;BME280;45412;54.472;18.464;2023-03-13T03:48:26;98720.11;;;-0.34;80.16
59588;BME280;45412;54.472;18.464;2023-03-13T03:51:12;98710.60;;;-0.36;80.53
59588;BME280;45412;54.472;18.464;2023-03-13T03:54:01;98707.38;;;-0.38;81.26
59588;BME280;45412;54.472;18.464;2023-03-13T03:56:48;98697.36;;;-0.39;82.27
59588;BME280;45412;54.472;18.464;2023-03-13T03:59:34;98695.77;;;-0.39;82.83
59588;BME280;45412;54.472;18.464;2023-03-13T04:02:23;98691.23;;;-0.42;82.95
59588;BME280;45412;54.472;18.464;2023-03-13T04:05:10;98694.63;;;-0.37;83.34
59588;BME280;45412;54.472;18.464;2023-03-13T04:07:59;98697.20;;;-0.36;83.98
59588;BME280;45412;54.472;18.464;2023-03-13T04:10:46;98693.22;;;-0.37;84.69
59588;BME280;45412;54.472;18.464;2023-03-13T04:13:32;98682.83;;;-0.38;85.18
59588;BME280;45412;54.472;18.464;2023-03-13T04:16:19;98676.50;;;-0.37;85.63
59588;BME280;45412;54.472;18.464;2023-03-13T04:19:06;98670.14;;;-0.39;86.47
59588;BME280;45412;54.472;18.464;2023-03-13T04:21:53;98661.06;;;-0.38;86.71
59588;BME280;45412;54.472;18.464;2023-03-13T04:24:41;98663.84;;;-0.38;87.09
59588;BME280;45412;54.472;18.464;2023-03-13T04:27:28;98660.39;;;-0.39;88.07
59588;BME280;45412;54.472;18.464;2023-03-13T04:30:15;98652.45;;;-0.37;88.29
59588;BME280;45412;54.472;18.464;2023-03-13T04:33:24;98645.34;;;-0.34;88.86
59588;BME280;45412;54.472;18.464;2023-03-13T04:36:29;98646.25;;;-0.32;89.44
59588;BME280;45412;54.472;18.464;2023-03-13T04:39:29;98643.18;;;-0.30;89.80
59588;BME280;45412;54.472;18.464;2023-03-13T04:42:45;98642.16;;;-0.30;90.33
59588;BME280;45412;54.472;18.464;2023-03-13T04:45:51;98641.30;;;-0.27;90.34
59588;BME280;45412;54.472;18.464;2023-03-13T04:48:41;98633.89;;;-0.26;90.80
59588;BME280;45412;54.472;18.464;2023-03-13T04:51:48;98630.08;;;-0.23;91.36
59588;BME280;45412;54.472;18.464;2023-03-13T04:54:46;98620.98;;;-0.20;91.59
59588;BME280;45412;54.472;18.464;2023-03-13T04:57:53;98606.86;;;-0.16;91.54
59588;BME280;45412;54.472;18.464;2023-03-13T05:00:53;98599.78;;;-0.15;91.49
59588;BME280;45412;54.472;18.464;2023-03-13T05:03:40;98596.30;;;-0.14;92.14
59588;BME280;45412;54.472;18.464;2023-03-13T05:06:35;98594.77;;;-0.12;91.91
59588;BME280;45412;54.472;18.464;2023-03-13T05:09:32;98586.50;;;-0.08;92.54
59588;BME280;45412;54.472;18.464;2023-03-13T05:12:51;98588.54;;;-0.04;93.07
59588;BME280;45412;54.472;18.464;2023-03-13T05:16:01;98582.67;;;-0.02;93.98
59588;BME280;45412;54.472;18.464;2023-03-13T05:19:06;98580.70;;;0.02;93.88
59588;BME280;45412;54.472;18.464;2023-03-13T05:22:04;98576.36;;;0.05;94.58
59588;BME280;45412;54.472;18.464;2023-03-13T05:25:29;98569.20;;;0.08;95.27
59588;BME280;45412;54.472;18.464;2023-03-13T05:28:36;98573.72;;;0.14;95.24
59588;BME280;45412;54.472;18.464;2023-03-13T05:31:47;98573.98;;;0.19;95.84
59588;BME280;45412;54.472;18.464;2023-03-13T05:34:48;98558.60;;;0.22;96.39
59588;BME280;45412;54.472;18.464;2023-03-13T05:38:01;98559.65;;;0.28;96.40
59588;BME280;45412;54.472;18.464;2023-03-13T05:40:56;98563.85;;;0.30;96.74
59588;BME280;45412;54.472;18.464;2023-03-13T05:44:01;98558.86;;;0.32;97.17
59588;BME280;45412;54.472;18.464;2023-03-13T05:47:17;98557.36;;;0.34;97.47
59588;BME280;45412;54.472;18.464;2023-03-13T05:50:12;98555.66;;;0.37;97.68
59588;BME280;45412;54.472;18.464;2023-03-13T05:53:37;98544.58;;;0.41;97.57
59588;BME280;45412;54.472;18.464;2023-03-13T05:56:24;98537.93;;;0.44;97.65
59588;BME280;45412;54.472;18.464;2023-03-13T05:59:29;98533.91;;;0.44;98.66
59588;BME280;45412;54.472;18.464;2023-03-13T06:02:35;98533.10;;;0.43;99.41
59588;BME280;45412;54.472;18.464;2023-03-13T06:05:23;98529.52;;;0.44;99.69
59588;BME280;45412;54.472;18.464;2023-03-13T06:08:09;98524.34;;;0.49;99.48
59588;BME280;45412;54.472;18.464;2023-03-13T06:10:59;98522.05;;;0.53;99.74
59588;BME280;45412;54.472;18.464;2023-03-13T06:13:46;98520.30;;;0.56;100.00
59588;BME280;45412;54.472;18.464;2023-03-13T06:16:43;98518.75;;;0.61;99.68
59588;BME280;45412;54.472;18.464;2023-03-13T06:19:33;98512.38;;;0.65;99.63
59588;BME280;45412;54.472;18.464;2023-03-13T06:22:19;98510.33;;;0.70;99.77
59588;BME280;45412;54.472;18.464;2023-03-13T06:25:06;98504.39;;;0.71;99.98
59588;BME280;45412;54.472;18.464;2023-03-13T06:27:53;98490.77;;;0.73;100.00
59588;BME280;45412;54.472;18.464;2023-03-13T06:30:40;98493.62;;;0.75;100.00
59588;BME280;45412;54.472;18.464;2023-03-13T06:33:26;98496.23;;;0.78;100.00
59588;BME280;45412;54.472;18.464;2023-03-13T06:36:13;98493.40;;;0.81;100.00
59588;BME280;45412;54.472;18.464;2023-03-13T06:39:00;98490.69;;;0.86;100.00
59588;BME280;45412;54.472;18.464;2023-03-13T06:41:46;98487.71;;;0.91;100.00
59588;BME280;45412;54.472;18.464;2023-03-13T06:44:33;98481.38;;;0.95;100.00
59588;BME280;45412;54.472;18.464;2023-03-13T06:47:19;98475.33;;;1.02;100.00
59588;BME280;45412;54.472;18.464;2023-03-13T06:50:06;98474.52;;;1.10;100.00
59588;BME280;45412;54.472;18.464;2023-03-13T06:52:53;98474.48;;;1.13;100.00
59588;BME280;45412;54.472;18.464;2023-03-13T06:55:39;98469.66;;;1.17;100.00
59588;BME280;45412;54.472;18.464;2023-03-13T06:58:26;98469.84;;;1.20;100.00
59588;BME280;45412;54.472;18.464;2023-03-13T07:01:18;98466.76;;;1.24;100.00
59588;BME280;45412;54.472;18.464;2023-03-13T07:04:05;98463.73;;;1.33;100.00
59588;BME280;45412;54.472;18.464;2023-03-13T07:06:51;98463.21;;;1.41;100.00
59588;BME280;45412;54.472;18.464;2023-03-13T07:09:38;98459.02;;;1.49;100.00
59588;BME280;45412;54.472;18.464;2023-03-13T07:12:24;98459.70;;;1.60;100.00
59588;BME280;45412;54.472;18.464;2023-03-13T07:15:11;98458.36;;;1.64;100.00
59588;BME280;45412;54.472;18.464;2023-03-13T07:17:58;98454.98;;;1.68;100.00
59588;BME280;45412;54.472;18.464;2023-03-13T07:20:44;98448.17;;;1.74;100.00
59588;BME280;45412;54.472;18.464;2023-03-13T07:23:36;98443.73;;;1.77;100.00
59588;BME280;45412;54.472;18.464;2023-03-13T07:26:23;98438.80;;;1.88;99.94
59588;BME280;45412;54.472;18.464;2023-03-13T07:29:10;98434.64;;;1.95;99.48
59588;BME280;45412;54.472;18.464;2023-03-13T07:31:56;98427.22;;;2.04;99.08
59588;BME280;45412;54.472;18.464;2023-03-13T07:34:43;98425.79;;;2.14;98.57
59588;BME280;45412;54.472;18.464;2023-03-13T07:37:29;98416.82;;;2.23;97.97
59588;BME280;45412;54.472;18.464;2023-03-13T07:40:16;98406.56;;;2.32;97.37
59588;BME280;45412;54.472;18.464;2023-03-13T07:43:02;98399.75;;;2.37;97.03
59588;BME280;45412;54.472;18.464;2023-03-13T07:46:01;98398.10;;;2.45;96.68
59588;BME280;45412;54.472;18.464;2023-03-13T07:48:48;98391.70;;;2.52;96.60
59588;BME280;45412;54.472;18.464;2023-03-13T07:51:35;98386.92;;;2.57;96.15
59588;BME280;45412;54.472;18.464;2023-03-13T07:54:29;98387.09;;;2.58;96.61
59588;BME280;45412;54.472;18.464;2023-03-13T07:57:16;98386.00;;;2.63;96.51
59588;BME280;45412;54.472;18.464;2023-03-13T08:00:03;98381.06;;;2.68;96.22
59588;BME280;45412;54.472;18.464;2023-03-13T08:02:57;98378.48;;;2.75;96.22
59588;BME280;45412;54.472;18.464;2023-03-13T08:05:44;98369.57;;;2.80;96.05
59588;BME280;45412;54.472;18.464;2023-03-13T08:08:31;98364.99;;;2.87;95.93
59588;BME280;45412;54.472;18.464;2023-03-13T08:11:22;98368.23;;;2.93;95.64
59588;BME280;45412;54.472;18.464;2023-03-13T08:14:10;98364.39;;;2.98;95.75
59588;BME280;45412;54.472;18.464;2023-03-13T08:16:57;98362.83;;;3.05;95.58
59588;BME280;45412;54.472;18.464;2023-03-13T08:19:43;98357.63;;;3.06;95.69
59588;BME280;45412;54.472;18.464;2023-03-13T08:22:30;98355.39;;;3.11;95.65
59588;BME280;45412;54.472;18.464;2023-03-13T08:25:16;98349.84;;;3.13;95.78
59588;BME280;45412;54.472;18.464;2023-03-13T08:28:03;98349.77;;;3.13;96.07
59588;BME280;45412;54.472;18.464;2023-03-13T08:30:49;98342.50;;;3.19;95.93
59588;BME280;45412;54.472;18.464;2023-03-13T08:33:36;98338.91;;;3.18;96.09
59588;BME280;45412;54.472;18.464;2023-03-13T08:36:32;98327.19;;;3.22;96.25
59588;BME280;45412;54.472;18.464;2023-03-13T08:39:19;98323.30;;;3.28;96.36
59588;BME280;45412;54.472;18.464;2023-03-13T08:42:09;98316.52;;;3.31;96.38
59588;BME280;45412;54.472;18.464;2023-03-13T08:44:56;98310.75;;;3.36;96.28
59588;BME280;45412;54.472;18.464;2023-03-13T08:47:43;98309.11;;;3.43;96.03
59588;BME280;45412;54.472;18.464;2023-03-13T08:50:30;98307.39;;;3.50;96.13
59588;BME280;45412;54.472;18.464;2023-03-13T08:53:17;98305.30;;;3.50;96.00
59588;BME280;45412;54.472;18.464;2023-03-13T08:56:11;98298.61;;;3.50;96.22
59588;BME280;45412;54.472;18.464;2023-03-13T08:59:02;98297.05;;;3.57;95.98
59588;BME280;45412;54.472;18.464;2023-03-13T09:01:49;98293.73;;;3.59;95.90
59588;BME280;45412;54.472;18.464;2023-03-13T09:04:36;98293.09;;;3.61;95.95
59588;BME280;45412;54.472;18.464;2023-03-13T09:07:22;98284.67;;;3.58;96.09
59588;BME280;45412;54.472;18.464;2023-03-13T09:10:10;98277.02;;;3.62;96.32
59588;BME280;45412;54.472;18.464;2023-03-13T09:12:56;98271.65;;;3.61;96.42
59588;BME280;45412;54.472;18.464;2023-03-13T09:15:42;98268.08;;;3.69;96.18
59588;BME280;45412;54.472;18.464;2023-03-13T09:18:29;98266.98;;;3.74;96.07
59588;BME280;45412;54.472;18.464;2023-03-13T09:21:34;98266.83;;;3.85;95.45
59588;BME280;45412;54.472;18.464;2023-03-13T09:24:22;98256.91;;;3.93;95.08
59588;BME280;45412;54.472;18.464;2023-03-13T09:27:09;98256.70;;;3.96;94.87
59588;BME280;45412;54.472;18.464;2023-03-13T09:29:55;98251.40;;;3.93;94.83
59588;BME280;45412;54.472;18.464;2023-03-13T09:32:42;98249.83;;;3.96;94.82
59588;BME280;45412;54.472;18.464;2023-03-13T09:35:29;98243.30;;;3.94;95.20
59588;BME280;45412;54.472;18.464;2023-03-13T09:38:20;98242.17;;;3.97;95.41
59588;BME280;45412;54.472;18.464;2023-03-13T09:44:32;98235.70;;;4.10;95.31
59588;BME280;45412;54.472;18.464;2023-03-13T09:47:55;98227.59;;;4.22;95.29
59588;BME280;45412;54.472;18.464;2023-03-13T09:50:55;98217.80;;;4.41;94.99
59588;BME280;45412;54.472;18.464;2023-03-13T09:53:51;98214.31;;;4.47;94.93
59588;BME280;45412;54.472;18.464;2023-03-13T09:56:54;98210.88;;;4.55;94.71
59588;BME280;45412;54.472;18.464;2023-03-13T10:00:05;98205.34;;;4.56;94.62
59588;BME280;45412;54.472;18.464;2023-03-13T10:03:16;98197.89;;;4.57;94.84
59588;BME280;45412;54.472;18.464;2023-03-13T10:06:21;98197.34;;;4.61;94.96
59588;BME280;45412;54.472;18.464;2023-03-13T10:09:27;98185.84;;;4.64;95.13
59588;BME280;45412;54.472;18.464;2023-03-13T10:12:23;98181.79;;;4.69;94.92
59588;BME280;45412;54.472;18.464;2023-03-13T10:15:37;98175.08;;;4.69;95.32
59588;BME280;45412;54.472;18.464;2023-03-13T10:18:26;98173.94;;;4.78;95.42
59588;BME280;45412;54.472;18.464;2023-03-13T10:21:18;98170.96;;;4.85;95.36
59588;BME280;45412;54.472;18.464;2023-03-13T10:24:24;98165.21;;;4.84;95.52
59588;BME280;45412;54.472;18.464;2023-03-13T10:27:14;98164.61;;;4.81;96.09
59588;BME280;45412;54.472;18.464;2023-03-13T10:30:01;98158.30;;;4.81;96.59
59588;BME280;45412;54.472;18.464;2023-03-13T10:32:47;98152.92;;;4.77;97.12
59588;BME280;45412;54.472;18.464;2023-03-13T10:35:41;98146.45;;;4.84;96.98
59588;BME280;45412;54.472;18.464;2023-03-13T10:38:32;98141.84;;;4.84;97.49
59588;BME280;45412;54.472;18.464;2023-03-13T10:41:28;98137.40;;;4.83;97.82
59588;BME280;45412;54.472;18.464;2023-03-13T10:44:22;98126.35;;;4.85;98.11
59588;BME280;45412;54.472;18.464;2023-03-13T10:47:13;98119.23;;;4.88;98.12
59588;BME280;45412;54.472;18.464;2023-03-13T10:50:00;98114.73;;;4.93;98.11
59588;BME280;45412;54.472;18.464;2023-03-13T10:52:48;98102.13;;;4.92;98.44
59588;BME280;45412;54.472;18.464;2023-03-13T10:55:41;98096.35;;;4.92;98.61
59588;BME280;45412;54.472;18.464;2023-03-13T10:58:44;98084.77;;;4.92;98.84
59588;BME280;45412;54.472;18.464;2023-03-13T11:01:41;98074.58;;;4.98;98.87
59588;BME280;45412;54.472;18.464;2023-03-13T11:04:32;98067.02;;;4.98;98.99
59588;BME280;45412;54.472;18.464;2023-03-13T11:07:29;98063.18;;;4.96;99.71
59588;BME280;45412;54.472;18.464;2023-03-13T11:13:34;98050.24;;;4.93;100.00
59588;BME280;45412;54.472;18.464;2023-03-13T11:16:25;98041.27;;;4.99;100.00
59588;BME280;45412;54.472;18.464;2023-03-13T11:19:19;98040.27;;;5.07;100.00
59588;BME280;45412;54.472;18.464;2023-03-13T11:25:14;98021.41;;;5.13;100.00
59588;BME280;45412;54.472;18.464;2023-03-13T11:28:32;98014.06;;;5.15;99.97
59588;BME280;45412;54.472;18.464;2023-03-13T11:31:33;97998.21;;;5.14;100.00
59588;BME280;45412;54.472;18.464;2023-03-13T11:34:23;97984.08;;;5.12;100.00
59588;BME280;45412;54.472;18.464;2023-03-13T11:37:15;97980.39;;;5.10;100.00
59588;BME280;45412;54.472;18.464;2023-03-13T11:40:29;97982.14;;;5.08;100.00
59588;BME280;45412;54.472;18.464;2023-03-13T11:43:54;97969.95;;;5.03;100.00
59588;BME280;45412;54.472;18.464;2023-03-13T11:53:55;97953.48;;;4.98;100.00
59588;BME280;45412;54.472;18.464;2023-03-13T11:57:23;97941.10;;;4.97;100.00
59588;BME280;45412;54.472;18.464;2023-03-13T12:00:45;97942.23;;;4.94;100.00
59588;BME280;45412;54.472;18.464;2023-03-13T12:10:12;97919.83;;;4.97;100.00
59588;BME280;45412;54.472;18.464;2023-03-13T12:13:15;97908.02;;;5.00;100.00
59588;BME280;45412;54.472;18.464;2023-03-13T12:16:17;97892.38;;;5.02;100.00
59588;BME280;45412;54.472;18.464;2023-03-13T12:19:09;97879.11;;;5.04;100.00
59588;BME280;45412;54.472;18.464;2023-03-13T12:22:13;97862.55;;;5.01;100.00
59588;BME280;45412;54.472;18.464;2023-03-13T12:25:09;97858.58;;;5.08;100.00
59588;BME280;45412;54.472;18.464;2023-03-13T12:28:22;97858.01;;;5.08;100.00
59588;BME280;45412;54.472;18.464;2023-03-13T12:34:24;97847.15;;;5.14;100.00
59588;BME280;45412;54.472;18.464;2023-03-13T12:37:30;97836.64;;;5.18;100.00
59588;BME280;45412;54.472;18.464;2023-03-13T12:40:44;97831.23;;;5.19;100.00
59588;BME280;45412;54.472;18.464;2023-03-13T12:43:38;97825.89;;;5.21;100.00
59588;BME280;45412;54.472;18.464;2023-03-13T12:46:47;97824.21;;;5.23;100.00
59588;BME280;45412;54.472;18.464;2023-03-13T12:56:21;97812.52;;;5.22;100.00
59588;BME280;45412;54.472;18.464;2023-03-13T12:59:26;97791.66;;;5.25;100.00
59588;BME280;45412;54.472;18.464;2023-03-13T13:02:27;97795.42;;;5.30;100.00
59588;BME280;45412;54.472;18.464;2023-03-13T13:05:20;97797.29;;;5.36;100.00
59588;BME280;45412;54.472;18.464;2023-03-13T13:08:23;97793.89;;;5.37;100.00
59588;BME280;45412;54.472;18.464;2023-03-13T13:17:22;97767.58;;;5.50;100.00
59588;BME280;45412;54.472;18.464;2023-03-13T13:20:40;97761.22;;;5.54;100.00
59588;BME280;45412;54.472;18.464;2023-03-13T13:32:12;97750.81;;;5.52;100.00
59588;BME280;45412;54.472;18.464;2023-03-13T13:35:24;97741.61;;;5.51;100.00
59588;BME280;45412;54.472;18.464;2023-03-13T13:41:33;97733.06;;;5.65;100.00
59588;BME280;45412;54.472;18.464;2023-03-13T13:44:26;97726.12;;;5.70;100.00
59588;BME280;45412;54.472;18.464;2023-03-13T13:47:23;97724.09;;;5.74;100.00
59588;BME280;45412;54.472;18.464;2023-03-13T13:53:32;97713.21;;;5.84;100.00
59588;BME280;45412;54.472;18.464;2023-03-13T13:56:45;97713.45;;;5.85;100.00
59588;BME280;45412;54.472;18.464;2023-03-13T13:59:43;97709.77;;;5.88;100.00
59588;BME280;45412;54.472;18.464;2023-03-13T14:02:35;97700.23;;;5.94;100.00
59588;BME280;45412;54.472;18.464;2023-03-13T14:05:29;97700.55;;;5.99;100.00
59588;BME280;45412;54.472;18.464;2023-03-13T14:08:35;97693.40;;;5.98;100.00
59588;BME280;45412;54.472;18.464;2023-03-13T14:11:32;97700.16;;;5.99;100.00
59588;BME280;45412;54.472;18.464;2023-03-13T14:14:22;97700.77;;;6.03;100.00
59588;BME280;45412;54.472;18.464;2023-03-13T14:17:09;97697.91;;;6.08;100.00
59588;BME280;45412;54.472;18.464;2023-03-13T14:19:55;97693.16;;;6.11;100.00
59588;BME280;45412;54.472;18.464;2023-03-13T14:22:46;97691.17;;;6.11;100.00
59588;BME280;45412;54.472;18.464;2023-03-13T14:29:15;97674.15;;;6.15;100.00
59588;BME280;45412;54.472;18.464;2023-03-13T14:32:03;97683.86;;;6.17;100.00
59588;BME280;45412;54.472;18.464;2023-03-13T14:34:50;97676.30;;;6.20;100.00
59588;BME280;45412;54.472;18.464;2023-03-13T14:37:45;97667.92;;;6.24;100.00
59588;BME280;45412;54.472;18.464;2023-03-13T14:40:36;97672.35;;;6.24;100.00
59588;BME280;45412;54.472;18.464;2023-03-13T14:43:37;97674.52;;;6.27;100.00
59588;BME280;45412;54.472;18.464;2023-03-13T14:46:34;97671.71;;;6.29;100.00
59588;BME280;45412;54.472;18.464;2023-03-13T14:49:25;97670.60;;;6.31;100.00
59588;BME280;45412;54.472;18.464;2023-03-13T14:52:26;97660.73;;;6.34;100.00
59588;BME280;45412;54.472;18.464;2023-03-13T15:01:25;97652.15;;;6.47;100.00
59588;BME280;45412;54.472;18.464;2023-03-13T15:04:12;97645.66;;;6.50;100.00
59588;BME280;45412;54.472;18.464;2023-03-13T15:07:02;97642.51;;;6.52;100.00
59588;BME280;45412;54.472;18.464;2023-03-13T15:09:50;97638.14;;;6.55;100.00
59588;BME280;45412;54.472;18.464;2023-03-13T15:12:43;97635.16;;;6.59;100.00
59588;BME280;45412;54.472;18.464;2023-03-13T15:15:29;97638.15;;;6.60;100.00
59588;BME280;45412;54.472;18.464;2023-03-13T15:18:23;97636.72;;;6.62;100.00
59588;BME280;45412;54.472;18.464;2023-03-13T15:24:12;97632.98;;;6.61;100.00
59588;BME280;45412;54.472;18.464;2023-03-13T15:26:59;97634.15;;;6.62;100.00
59588;BME280;45412;54.472;18.464;2023-03-13T15:29:45;97632.48;;;6.62;100.00
59588;BME280;45412;54.472;18.464;2023-03-13T15:32:37;97631.16;;;6.61;100.00
59588;BME280;45412;54.472;18.464;2023-03-13T15:35:31;97629.65;;;6.62;100.00
59588;BME280;45412;54.472;18.464;2023-03-13T15:38:24;97628.70;;;6.63;100.00
59588;BME280;45412;54.472;18.464;2023-03-13T15:41:11;97625.79;;;6.64;100.00
59588;BME280;45412;54.472;18.464;2023-03-13T15:43:57;97629.63;;;6.68;100.00
59588;BME280;45412;54.472;18.464;2023-03-13T15:46:44;97636.48;;;6.70;100.00
59588;BME280;45412;54.472;18.464;2023-03-13T15:49:31;97636.17;;;6.73;100.00
59588;BME280;45412;54.472;18.464;2023-03-13T15:52:20;97643.71;;;6.75;100.00
59588;BME280;45412;54.472;18.464;2023-03-13T15:55:10;97643.76;;;6.77;100.00
59588;BME280;45412;54.472;18.464;2023-03-13T15:57:57;97638.60;;;6.77;100.00
59588;BME280;45412;54.472;18.464;2023-03-13T16:00:44;97640.93;;;6.78;100.00
59588;BME280;45412;54.472;18.464;2023-03-13T16:03:31;97641.56;;;6.85;100.00
59588;BME280;45412;54.472;18.464;2023-03-13T16:06:20;97643.80;;;6.88;100.00
59588;BME280;45412;54.472;18.464;2023-03-13T16:09:16;97646.35;;;6.93;100.00
59588;BME280;45412;54.472;18.464;2023-03-13T16:12:03;97644.60;;;6.96;100.00
59588;BME280;45412;54.472;18.464;2023-03-13T16:14:49;97644.09;;;7.02;100.00
59588;BME280;45412;54.472;18.464;2023-03-13T16:17:36;97650.56;;;7.06;100.00